HAZ2728 ZJQH-ZSHC
Flight info
| Callsign | HAZ2728 |
|---|---|
| Flight time | 2h 13m |
| Altitude | 35100 |
| Route | DOBVI8ZD DOBVI W222 NUMKU W223 AGTEL W71 LH DCT GYA B330 POU G471 SHL W26 UPRIK DCT PLT A599 ELNEX ELNEX13 |
| Aircraft | A320/M-SDE3FGHIRWY/LB1 |
Departure
| Time | 2026-05-06 05:36 |
|---|---|
| Airport | Qionghai Bo'ao Airport (ZJQH) |
Arrival
| Time | 2026-05-06 07:49 |
|---|---|
| Airport | Hangzhou Xiaoshan International Airport (ZSHC) |
| Time | Latitude | Longitude | Altitude | Speed | Heading |
|---|---|---|---|---|---|
| 2026-05-06 05:15 | 19.14159 | 110.45714 | 24 ft | 0 kts | 60° |
| 2026-05-06 05:28 | 19.14156 | 110.45708 | 24 ft | 3 kts | 59° |
| 2026-05-06 05:28 | 19.14144 | 110.45689 | 24 ft | 3 kts | 52° |
| 2026-05-06 05:28 | 19.14130 | 110.45672 | 24 ft | 3 kts | 40° |
| 2026-05-06 05:28 | 19.14113 | 110.45660 | 24 ft | 3 kts | 14° |
| 2026-05-06 05:29 | 19.14096 | 110.45660 | 24 ft | 1 kts | 329° |
| 2026-05-06 05:29 | 19.14092 | 110.45662 | 25 ft | 0 kts | 329° |
| 2026-05-06 05:31 | 19.14116 | 110.45646 | 24 ft | 9 kts | 323° |
| 2026-05-06 05:31 | 19.14115 | 110.45590 | 24 ft | 8 kts | 240° |
| 2026-05-06 05:31 | 19.14077 | 110.45521 | 23 ft | 15 kts | 240° |
| 2026-05-06 05:32 | 19.14020 | 110.45412 | 27 ft | 17 kts | 241° |
| 2026-05-06 05:32 | 19.14059 | 110.45330 | 23 ft | 13 kts | 329° |
| 2026-05-06 05:32 | 19.14156 | 110.45271 | 23 ft | 22 kts | 330° |
| 2026-05-06 05:32 | 19.14313 | 110.45176 | 24 ft | 28 kts | 330° |
| 2026-05-06 05:33 | 19.14487 | 110.45071 | 25 ft | 29 kts | 330° |
| 2026-05-06 05:33 | 19.14668 | 110.44964 | 23 ft | 28 kts | 330° |
| 2026-05-06 05:33 | 19.14841 | 110.44859 | 25 ft | 29 kts | 329° |
| 2026-05-06 05:33 | 19.15017 | 110.44752 | 21 ft | 29 kts | 328° |
| 2026-05-06 05:34 | 19.15181 | 110.44652 | 23 ft | 22 kts | 330° |
| 2026-05-06 05:34 | 19.15287 | 110.44633 | 26 ft | 14 kts | 1° |
| 2026-05-06 05:34 | 19.15381 | 110.44625 | 23 ft | 15 kts | 336° |
| 2026-05-06 05:34 | 19.15403 | 110.44548 | 23 ft | 11 kts | 228° |
| 2026-05-06 05:35 | 19.15353 | 110.44549 | 27 ft | 0 kts | 149° |
| 2026-05-06 05:35 | 19.15257 | 110.44607 | 24 ft | 49 kts | 149° |
| 2026-05-06 05:35 | 19.14755 | 110.44910 | 23 ft | 114 kts | 150° |
| 2026-05-06 05:36 | 19.13911 | 110.45417 | 30 ft | 163 kts | 150° |
| 2026-05-06 05:36 | 19.12875 | 110.46035 | 471 ft | 177 kts | 150° |
| 2026-05-06 05:36 | 19.11803 | 110.46679 | 1167 ft | 176 kts | 151° |
| 2026-05-06 05:36 | 19.10740 | 110.47318 | 1892 ft | 178 kts | 149° |
| 2026-05-06 05:37 | 19.09607 | 110.47999 | 2266 ft | 198 kts | 150° |
| 2026-05-06 05:37 | 19.08356 | 110.48749 | 2643 ft | 212 kts | 151° |
| 2026-05-06 05:37 | 19.07059 | 110.49528 | 3194 ft | 216 kts | 150° |
| 2026-05-06 05:37 | 19.05744 | 110.50320 | 3764 ft | 218 kts | 151° |
| 2026-05-06 05:38 | 19.04417 | 110.51120 | 4348 ft | 221 kts | 151° |
| 2026-05-06 05:38 | 19.03029 | 110.51814 | 4901 ft | 222 kts | 171° |
| 2026-05-06 05:38 | 19.01533 | 110.51593 | 5451 ft | 221 kts | 209° |
| 2026-05-06 05:38 | 19.00472 | 110.50458 | 6033 ft | 221 kts | 244° |
| 2026-05-06 05:39 | 18.99957 | 110.48913 | 6576 ft | 224 kts | 252° |
| 2026-05-06 05:39 | 18.99487 | 110.47332 | 7048 ft | 230 kts | 252° |
| 2026-05-06 05:39 | 18.98985 | 110.45636 | 7294 ft | 254 kts | 252° |
| 2026-05-06 05:39 | 18.98436 | 110.43776 | 7651 ft | 275 kts | 252° |
| 2026-05-06 05:40 | 18.97858 | 110.41819 | 8306 ft | 281 kts | 254° |
| 2026-05-06 05:40 | 18.97666 | 110.39767 | 9048 ft | 285 kts | 280° |
| 2026-05-06 05:40 | 18.98489 | 110.37868 | 9763 ft | 291 kts | 310° |
| 2026-05-06 05:40 | 18.99975 | 110.36396 | 10449 ft | 295 kts | 317° |
| 2026-05-06 05:41 | 19.01527 | 110.34962 | 11113 ft | 299 kts | 315° |
| 2026-05-06 05:41 | 19.03057 | 110.33367 | 11341 ft | 320 kts | 313° |
| 2026-05-06 05:41 | 19.04646 | 110.31599 | 11472 ft | 343 kts | 311° |
| 2026-05-06 05:41 | 19.06313 | 110.29693 | 11594 ft | 363 kts | 311° |
| 2026-05-06 05:42 | 19.08054 | 110.27684 | 11916 ft | 375 kts | 311° |
| 2026-05-06 05:42 | 19.09833 | 110.25637 | 12454 ft | 380 kts | 311° |
| 2026-05-06 05:42 | 19.11634 | 110.23571 | 13025 ft | 384 kts | 311° |
| 2026-05-06 05:42 | 19.13460 | 110.21486 | 13606 ft | 388 kts | 311° |
| 2026-05-06 05:43 | 19.15304 | 110.19391 | 14118 ft | 391 kts | 311° |
| 2026-05-06 05:43 | 19.17167 | 110.17281 | 14627 ft | 394 kts | 311° |
| 2026-05-06 05:43 | 19.19018 | 110.15187 | 15119 ft | 397 kts | 311° |
| 2026-05-06 05:43 | 19.20908 | 110.13046 | 15605 ft | 399 kts | 311° |
| 2026-05-06 05:44 | 19.22807 | 110.10892 | 16100 ft | 402 kts | 311° |
| 2026-05-06 05:44 | 19.24717 | 110.08721 | 16564 ft | 405 kts | 310° |
| 2026-05-06 05:44 | 19.26675 | 110.06566 | 17020 ft | 409 kts | 316° |
| 2026-05-06 05:44 | 19.29016 | 110.04823 | 17457 ft | 416 kts | 330° |
| 2026-05-06 05:45 | 19.31746 | 110.03742 | 17882 ft | 424 kts | 345° |
| 2026-05-06 05:45 | 19.34703 | 110.03438 | 18270 ft | 432 kts | 0° |
| 2026-05-06 05:45 | 19.37681 | 110.03988 | 18604 ft | 440 kts | 16° |
| 2026-05-06 05:45 | 19.40515 | 110.05256 | 18973 ft | 444 kts | 23° |
| 2026-05-06 05:46 | 19.43332 | 110.06623 | 19351 ft | 446 kts | 23° |
| 2026-05-06 05:46 | 19.46162 | 110.07991 | 19731 ft | 448 kts | 22° |
| 2026-05-06 05:46 | 19.49009 | 110.09366 | 20089 ft | 451 kts | 22° |
| 2026-05-06 05:46 | 19.51869 | 110.10750 | 20453 ft | 453 kts | 23° |
| 2026-05-06 05:47 | 19.54741 | 110.12138 | 20812 ft | 455 kts | 22° |
| 2026-05-06 05:47 | 19.57631 | 110.13533 | 21165 ft | 457 kts | 22° |
| 2026-05-06 05:47 | 19.60532 | 110.14934 | 21537 ft | 459 kts | 22° |
| 2026-05-06 05:47 | 19.63442 | 110.16341 | 21891 ft | 461 kts | 23° |
| 2026-05-06 05:48 | 19.66365 | 110.17756 | 22204 ft | 463 kts | 23° |
| 2026-05-06 05:48 | 19.69308 | 110.19178 | 22518 ft | 466 kts | 23° |
| 2026-05-06 05:48 | 19.72266 | 110.20609 | 22839 ft | 468 kts | 23° |
| 2026-05-06 05:48 | 19.75237 | 110.22048 | 23158 ft | 471 kts | 23° |
| 2026-05-06 05:49 | 19.78222 | 110.23495 | 23487 ft | 473 kts | 23° |
| 2026-05-06 05:49 | 19.81218 | 110.24950 | 23752 ft | 475 kts | 23° |
| 2026-05-06 05:49 | 19.84226 | 110.26415 | 24023 ft | 476 kts | 23° |
| 2026-05-06 05:49 | 19.87240 | 110.27881 | 24288 ft | 477 kts | 23° |
| 2026-05-06 05:50 | 19.90263 | 110.29348 | 24562 ft | 478 kts | 23° |
| 2026-05-06 05:50 | 19.93291 | 110.30817 | 24844 ft | 479 kts | 22° |
| 2026-05-06 05:50 | 19.96328 | 110.32292 | 25092 ft | 481 kts | 22° |
| 2026-05-06 05:50 | 19.99378 | 110.33773 | 25335 ft | 482 kts | 22° |
| 2026-05-06 05:51 | 20.02432 | 110.35253 | 25578 ft | 483 kts | 21° |
| 2026-05-06 05:51 | 20.05596 | 110.36439 | 25816 ft | 482 kts | 12° |
| 2026-05-06 05:51 | 20.08886 | 110.37065 | 26053 ft | 480 kts | 3° |
| 2026-05-06 05:51 | 20.12217 | 110.37132 | 26290 ft | 478 kts | 354° |
| 2026-05-06 05:52 | 20.15497 | 110.36640 | 26524 ft | 476 kts | 346° |
| 2026-05-06 05:52 | 20.18749 | 110.35938 | 26754 ft | 477 kts | 346° |
| 2026-05-06 05:52 | 20.22008 | 110.35240 | 26984 ft | 479 kts | 346° |
| 2026-05-06 05:52 | 20.25274 | 110.34549 | 27262 ft | 479 kts | 346° |
| 2026-05-06 05:53 | 20.28541 | 110.33865 | 27600 ft | 477 kts | 346° |
| 2026-05-06 05:53 | 20.31795 | 110.33184 | 27946 ft | 476 kts | 346° |
| 2026-05-06 05:53 | 20.35040 | 110.32501 | 28301 ft | 475 kts | 346° |
| 2026-05-06 05:53 | 20.38277 | 110.31816 | 28668 ft | 473 kts | 346° |
| 2026-05-06 05:54 | 20.41499 | 110.31133 | 29033 ft | 472 kts | 346° |
| 2026-05-06 05:54 | 20.44713 | 110.30454 | 29401 ft | 470 kts | 346° |
| 2026-05-06 05:54 | 20.47923 | 110.29785 | 29768 ft | 469 kts | 348° |
| 2026-05-06 05:54 | 20.51177 | 110.29461 | 30099 ft | 472 kts | 357° |
| 2026-05-06 05:55 | 20.54459 | 110.29613 | 30406 ft | 472 kts | 1° |
| 2026-05-06 05:55 | 20.57729 | 110.29837 | 30737 ft | 470 kts | 1° |
| 2026-05-06 05:55 | 20.60989 | 110.30059 | 31061 ft | 469 kts | 1° |
| 2026-05-06 05:55 | 20.64237 | 110.30275 | 31383 ft | 467 kts | 0° |
| 2026-05-06 05:56 | 20.67476 | 110.30487 | 31709 ft | 466 kts | 0° |
| 2026-05-06 05:56 | 20.70705 | 110.30696 | 32035 ft | 464 kts | 0° |
| 2026-05-06 05:56 | 20.73923 | 110.30904 | 32358 ft | 463 kts | 0° |
| 2026-05-06 05:56 | 20.77136 | 110.31111 | 32690 ft | 461 kts | 0° |
| 2026-05-06 05:57 | 20.80333 | 110.31317 | 33021 ft | 460 kts | 0° |
| 2026-05-06 05:57 | 20.83523 | 110.31525 | 33363 ft | 458 kts | 0° |
| 2026-05-06 05:57 | 20.86701 | 110.31734 | 33695 ft | 457 kts | 0° |
| 2026-05-06 05:57 | 20.89869 | 110.31943 | 34010 ft | 456 kts | 0° |
| 2026-05-06 05:58 | 20.93031 | 110.32153 | 34285 ft | 455 kts | 0° |
| 2026-05-06 05:58 | 20.96186 | 110.32364 | 34551 ft | 454 kts | 0° |
| 2026-05-06 05:58 | 20.99293 | 110.32570 | 34800 ft | 453 kts | 0° |
| 2026-05-06 05:58 | 21.02486 | 110.32781 | 34969 ft | 453 kts | 0° |
| 2026-05-06 05:59 | 21.08810 | 110.33354 | 35016 ft | 460 kts | 8° |
| 2026-05-06 05:59 | 21.11899 | 110.34304 | 35020 ft | 466 kts | 19° |
| 2026-05-06 05:59 | 21.14826 | 110.35861 | 35014 ft | 474 kts | 29° |
| 2026-05-06 06:00 | 21.17441 | 110.37962 | 35014 ft | 480 kts | 40° |
| 2026-05-06 06:00 | 21.19814 | 110.40493 | 35022 ft | 482 kts | 43° |
| 2026-05-06 06:00 | 21.24524 | 110.45629 | 35025 ft | 483 kts | 43° |
| 2026-05-06 06:01 | 21.29218 | 110.50754 | 35027 ft | 483 kts | 43° |
| 2026-05-06 06:01 | 21.33925 | 110.55901 | 35031 ft | 483 kts | 43° |
| 2026-05-06 06:02 | 21.38638 | 110.61042 | 35031 ft | 483 kts | 43° |
| 2026-05-06 06:02 | 21.43348 | 110.66183 | 35033 ft | 483 kts | 43° |
| 2026-05-06 06:03 | 21.48052 | 110.71329 | 35033 ft | 483 kts | 43° |
| 2026-05-06 06:03 | 21.52751 | 110.76478 | 35037 ft | 482 kts | 43° |
| 2026-05-06 06:04 | 21.57449 | 110.81624 | 35040 ft | 483 kts | 43° |
| 2026-05-06 06:04 | 21.62149 | 110.86779 | 35037 ft | 483 kts | 43° |
| 2026-05-06 06:05 | 21.66847 | 110.91945 | 35042 ft | 483 kts | 43° |
| 2026-05-06 06:05 | 21.71550 | 110.97120 | 35036 ft | 484 kts | 43° |
| 2026-05-06 06:06 | 21.76258 | 111.02288 | 35051 ft | 484 kts | 43° |
| 2026-05-06 06:06 | 21.80961 | 111.07477 | 35048 ft | 484 kts | 43° |
| 2026-05-06 06:07 | 21.85653 | 111.12665 | 35049 ft | 483 kts | 43° |
| 2026-05-06 06:07 | 21.89552 | 111.16966 | 35056 ft | 483 kts | 43° |
| 2026-05-06 06:08 | 21.95006 | 111.22983 | 35051 ft | 483 kts | 43° |
| 2026-05-06 06:08 | 21.98930 | 111.27319 | 35052 ft | 482 kts | 43° |
| 2026-05-06 06:09 | 22.03616 | 111.32503 | 35043 ft | 483 kts | 43° |
| 2026-05-06 06:09 | 22.08301 | 111.37694 | 35040 ft | 484 kts | 43° |
| 2026-05-06 06:10 | 22.12992 | 111.42898 | 35037 ft | 484 kts | 43° |
| 2026-05-06 06:10 | 22.17687 | 111.48111 | 35042 ft | 484 kts | 43° |
| 2026-05-06 06:11 | 22.22381 | 111.53327 | 35046 ft | 484 kts | 43° |
| 2026-05-06 06:11 | 22.27066 | 111.58555 | 35050 ft | 484 kts | 43° |
| 2026-05-06 06:12 | 22.31758 | 111.63782 | 35045 ft | 485 kts | 43° |
| 2026-05-06 06:12 | 22.36459 | 111.69011 | 35045 ft | 485 kts | 43° |
| 2026-05-06 06:13 | 22.41158 | 111.74251 | 35044 ft | 486 kts | 43° |
| 2026-05-06 06:13 | 22.45850 | 111.79505 | 35048 ft | 486 kts | 43° |
| 2026-05-06 06:14 | 22.50510 | 111.84722 | 35045 ft | 485 kts | 43° |
| 2026-05-06 06:14 | 22.55206 | 111.89972 | 35052 ft | 486 kts | 43° |
| 2026-05-06 06:15 | 22.59904 | 111.95232 | 35050 ft | 486 kts | 43° |
| 2026-05-06 06:15 | 22.64596 | 112.00503 | 35044 ft | 486 kts | 43° |
| 2026-05-06 06:16 | 22.69291 | 112.05781 | 35047 ft | 487 kts | 43° |
| 2026-05-06 06:16 | 22.73989 | 112.11059 | 35048 ft | 486 kts | 43° |
| 2026-05-06 06:17 | 22.78684 | 112.16344 | 35059 ft | 487 kts | 43° |
| 2026-05-06 06:17 | 22.83387 | 112.21639 | 35054 ft | 488 kts | 43° |
| 2026-05-06 06:18 | 22.88090 | 112.26942 | 35053 ft | 488 kts | 43° |
| 2026-05-06 06:18 | 22.92794 | 112.32258 | 35054 ft | 489 kts | 43° |
| 2026-05-06 06:19 | 22.97501 | 112.37578 | 35057 ft | 489 kts | 43° |
| 2026-05-06 06:19 | 23.02173 | 112.42935 | 35058 ft | 490 kts | 48° |
| 2026-05-06 06:20 | 23.05532 | 112.49401 | 35066 ft | 498 kts | 70° |
| 2026-05-06 06:20 | 23.06359 | 112.53059 | 35062 ft | 501 kts | 81° |
| 2026-05-06 06:20 | 23.06564 | 112.56829 | 35058 ft | 502 kts | 91° |
| 2026-05-06 06:21 | 23.06041 | 112.64404 | 35052 ft | 503 kts | 94° |
| 2026-05-06 06:21 | 23.05502 | 112.71982 | 35058 ft | 504 kts | 94° |
| 2026-05-06 06:22 | 23.04964 | 112.79566 | 35060 ft | 504 kts | 94° |
| 2026-05-06 06:22 | 23.04417 | 112.87155 | 35061 ft | 504 kts | 94° |
| 2026-05-06 06:23 | 23.03863 | 112.94742 | 35062 ft | 504 kts | 94° |
| 2026-05-06 06:23 | 23.03307 | 113.02326 | 35062 ft | 504 kts | 94° |
| 2026-05-06 06:24 | 23.02748 | 113.09914 | 35061 ft | 504 kts | 94° |
| 2026-05-06 06:24 | 23.02199 | 113.17446 | 35062 ft | 504 kts | 91° |
| 2026-05-06 06:25 | 23.02714 | 113.25049 | 35067 ft | 502 kts | 81° |
| 2026-05-06 06:26 | 23.03973 | 113.36280 | 35064 ft | 502 kts | 82° |
| 2026-05-06 06:26 | 23.04795 | 113.43803 | 35071 ft | 502 kts | 82° |
| 2026-05-06 06:27 | 23.05616 | 113.51324 | 35071 ft | 502 kts | 82° |
| 2026-05-06 06:27 | 23.06444 | 113.58851 | 35069 ft | 502 kts | 82° |
| 2026-05-06 06:28 | 23.07266 | 113.66381 | 35070 ft | 502 kts | 82° |
| 2026-05-06 06:28 | 23.08092 | 113.73914 | 35069 ft | 502 kts | 79° |
| 2026-05-06 06:28 | 23.08936 | 113.77573 | 35066 ft | 498 kts | 67° |
| 2026-05-06 06:29 | 23.10408 | 113.80954 | 35065 ft | 494 kts | 55° |
| 2026-05-06 06:29 | 23.12436 | 113.83938 | 35075 ft | 489 kts | 44° |
| 2026-05-06 06:29 | 23.14918 | 113.86415 | 35067 ft | 483 kts | 32° |
| 2026-05-06 06:29 | 23.17750 | 113.88324 | 35068 ft | 477 kts | 21° |
| 2026-05-06 06:30 | 23.20805 | 113.89664 | 35064 ft | 473 kts | 15° |
| 2026-05-06 06:30 | 23.27004 | 113.92095 | 35066 ft | 474 kts | 15° |
| 2026-05-06 06:31 | 23.33209 | 113.94540 | 35069 ft | 475 kts | 16° |
| 2026-05-06 06:31 | 23.39414 | 113.96999 | 35070 ft | 475 kts | 16° |
| 2026-05-06 06:32 | 23.45621 | 113.99459 | 35071 ft | 475 kts | 16° |
| 2026-05-06 06:32 | 23.51571 | 114.02633 | 35069 ft | 482 kts | 32° |
| 2026-05-06 06:33 | 23.56880 | 114.07057 | 35062 ft | 484 kts | 34° |
| 2026-05-06 06:33 | 23.62223 | 114.11540 | 35058 ft | 485 kts | 34° |
| 2026-05-06 06:34 | 23.67566 | 114.16041 | 35066 ft | 486 kts | 33° |
| 2026-05-06 06:34 | 23.72915 | 114.20558 | 35065 ft | 486 kts | 34° |
| 2026-05-06 06:35 | 23.78312 | 114.25094 | 35069 ft | 487 kts | 33° |
| 2026-05-06 06:35 | 23.83685 | 114.29604 | 35073 ft | 487 kts | 33° |
| 2026-05-06 06:36 | 23.89067 | 114.34016 | 35080 ft | 487 kts | 32° |
| 2026-05-06 06:36 | 23.94505 | 114.38426 | 35092 ft | 487 kts | 32° |
| 2026-05-06 06:37 | 23.99933 | 114.42857 | 35083 ft | 487 kts | 33° |
| 2026-05-06 06:37 | 24.05349 | 114.47300 | 35078 ft | 487 kts | 33° |
| 2026-05-06 06:38 | 24.10768 | 114.51750 | 35081 ft | 487 kts | 33° |
| 2026-05-06 06:38 | 24.16185 | 114.56206 | 35078 ft | 487 kts | 33° |
| 2026-05-06 06:39 | 24.21600 | 114.60666 | 35085 ft | 487 kts | 32° |
| 2026-05-06 06:39 | 24.27018 | 114.65133 | 35083 ft | 487 kts | 32° |
| 2026-05-06 06:40 | 24.32438 | 114.69595 | 35078 ft | 487 kts | 32° |
| 2026-05-06 06:40 | 24.37859 | 114.74061 | 35075 ft | 488 kts | 32° |
| 2026-05-06 06:41 | 24.43278 | 114.78540 | 35083 ft | 487 kts | 32° |
| 2026-05-06 06:41 | 24.48686 | 114.83021 | 35068 ft | 487 kts | 32° |
| 2026-05-06 06:42 | 24.54096 | 114.87497 | 35056 ft | 487 kts | 32° |
| 2026-05-06 06:42 | 24.59611 | 114.91773 | 35058 ft | 481 kts | 24° |
| 2026-05-06 06:43 | 24.65784 | 114.94276 | 35058 ft | 469 kts | 7° |
| 2026-05-06 06:43 | 24.72157 | 114.95829 | 35061 ft | 469 kts | 7° |
| 2026-05-06 06:44 | 24.78522 | 114.97409 | 35052 ft | 469 kts | 7° |
| 2026-05-06 06:44 | 24.84889 | 114.98971 | 35047 ft | 469 kts | 7° |
| 2026-05-06 06:45 | 24.91258 | 115.00509 | 35032 ft | 469 kts | 7° |
| 2026-05-06 06:45 | 24.97631 | 115.02057 | 35050 ft | 469 kts | 7° |
| 2026-05-06 06:46 | 25.04006 | 115.03615 | 35044 ft | 469 kts | 7° |
| 2026-05-06 06:46 | 25.10373 | 115.05167 | 35041 ft | 468 kts | 7° |
| 2026-05-06 06:47 | 25.16694 | 115.06711 | 35033 ft | 469 kts | 7° |
| 2026-05-06 06:47 | 25.23064 | 115.08268 | 35046 ft | 469 kts | 7° |
| 2026-05-06 06:48 | 25.29438 | 115.09813 | 35038 ft | 467 kts | 4° |
| 2026-05-06 06:48 | 25.35795 | 115.09865 | 35031 ft | 452 kts | 345° |
| 2026-05-06 06:49 | 25.41644 | 115.07679 | 35023 ft | 441 kts | 330° |
| 2026-05-06 06:49 | 25.47216 | 115.04810 | 35011 ft | 442 kts | 331° |
| 2026-05-06 06:50 | 25.52803 | 115.01960 | 35025 ft | 442 kts | 331° |
| 2026-05-06 06:50 | 25.58397 | 114.99105 | 35007 ft | 443 kts | 330° |
| 2026-05-06 06:51 | 25.63986 | 114.96239 | 35004 ft | 443 kts | 330° |
| 2026-05-06 06:51 | 25.69578 | 114.93367 | 35008 ft | 443 kts | 331° |
| 2026-05-06 06:52 | 25.75310 | 114.90835 | 35001 ft | 451 kts | 344° |
| 2026-05-06 06:52 | 25.78466 | 114.90571 | 35001 ft | 461 kts | 359° |
| 2026-05-06 06:52 | 25.81642 | 114.91228 | 34995 ft | 471 kts | 14° |
| 2026-05-06 06:52 | 25.84625 | 114.92827 | 35001 ft | 483 kts | 30° |
| 2026-05-06 06:53 | 25.87180 | 114.95281 | 34986 ft | 491 kts | 42° |
| 2026-05-06 06:53 | 25.91864 | 115.00830 | 34978 ft | 493 kts | 43° |
| 2026-05-06 06:54 | 25.95753 | 115.05468 | 34981 ft | 494 kts | 43° |
| 2026-05-06 06:54 | 26.00439 | 115.11051 | 34999 ft | 494 kts | 42° |
| 2026-05-06 06:55 | 26.05135 | 115.16636 | 34991 ft | 494 kts | 42° |
| 2026-05-06 06:55 | 26.09837 | 115.22218 | 34994 ft | 495 kts | 42° |
| 2026-05-06 06:56 | 26.14535 | 115.27813 | 35005 ft | 495 kts | 43° |
| 2026-05-06 06:56 | 26.19225 | 115.33418 | 35000 ft | 495 kts | 42° |
| 2026-05-06 06:57 | 26.23912 | 115.39033 | 35020 ft | 495 kts | 43° |
| 2026-05-06 06:57 | 26.28595 | 115.44649 | 35036 ft | 494 kts | 42° |
| 2026-05-06 06:58 | 26.33277 | 115.50261 | 35028 ft | 494 kts | 42° |
| 2026-05-06 06:58 | 26.37963 | 115.55877 | 35018 ft | 495 kts | 42° |
| 2026-05-06 06:59 | 26.42644 | 115.61503 | 35009 ft | 495 kts | 43° |
| 2026-05-06 06:59 | 26.47323 | 115.67134 | 35020 ft | 494 kts | 43° |
| 2026-05-06 07:00 | 26.51990 | 115.72754 | 35049 ft | 493 kts | 43° |
| 2026-05-06 07:00 | 26.56650 | 115.78366 | 35031 ft | 492 kts | 42° |
| 2026-05-06 07:01 | 26.61301 | 115.83975 | 35043 ft | 492 kts | 43° |
| 2026-05-06 07:01 | 26.65937 | 115.89598 | 35024 ft | 492 kts | 43° |
| 2026-05-06 07:02 | 26.70541 | 115.95183 | 35019 ft | 491 kts | 43° |
| 2026-05-06 07:02 | 26.75204 | 116.00830 | 35041 ft | 490 kts | 42° |
| 2026-05-06 07:03 | 26.79822 | 116.06365 | 35034 ft | 489 kts | 42° |
| 2026-05-06 07:03 | 26.84471 | 116.11927 | 35029 ft | 489 kts | 42° |
| 2026-05-06 07:04 | 26.89104 | 116.17498 | 35026 ft | 489 kts | 42° |
| 2026-05-06 07:04 | 26.93730 | 116.23082 | 35021 ft | 489 kts | 42° |
| 2026-05-06 07:05 | 26.98362 | 116.28660 | 35028 ft | 488 kts | 42° |
| 2026-05-06 07:05 | 27.02987 | 116.34231 | 35027 ft | 488 kts | 42° |
| 2026-05-06 07:06 | 27.07602 | 116.39805 | 35022 ft | 487 kts | 42° |
| 2026-05-06 07:06 | 27.12208 | 116.45388 | 35021 ft | 487 kts | 42° |
| 2026-05-06 07:07 | 27.16811 | 116.50974 | 35027 ft | 487 kts | 42° |
| 2026-05-06 07:07 | 27.21415 | 116.56558 | 35025 ft | 487 kts | 42° |
| 2026-05-06 07:08 | 27.26088 | 116.62059 | 35016 ft | 486 kts | 41° |
| 2026-05-06 07:08 | 27.30816 | 116.67490 | 35014 ft | 486 kts | 40° |
| 2026-05-06 07:09 | 27.35538 | 116.72940 | 35007 ft | 487 kts | 41° |
| 2026-05-06 07:09 | 27.40231 | 116.78427 | 35016 ft | 487 kts | 41° |
| 2026-05-06 07:10 | 27.44922 | 116.83924 | 35012 ft | 487 kts | 41° |
| 2026-05-06 07:10 | 27.49589 | 116.89384 | 35014 ft | 487 kts | 41° |
| 2026-05-06 07:11 | 27.54292 | 116.94875 | 35014 ft | 487 kts | 41° |
| 2026-05-06 07:11 | 27.59019 | 117.00331 | 35021 ft | 487 kts | 41° |
| 2026-05-06 07:12 | 27.63757 | 117.05785 | 35029 ft | 487 kts | 41° |
| 2026-05-06 07:12 | 27.68485 | 117.11253 | 35028 ft | 487 kts | 41° |
| 2026-05-06 07:13 | 27.73209 | 117.16735 | 35022 ft | 487 kts | 41° |
| 2026-05-06 07:13 | 27.77929 | 117.22224 | 35016 ft | 488 kts | 41° |
| 2026-05-06 07:14 | 27.82645 | 117.27722 | 35037 ft | 487 kts | 41° |
| 2026-05-06 07:14 | 27.87367 | 117.33223 | 35022 ft | 487 kts | 41° |
| 2026-05-06 07:15 | 27.92081 | 117.38727 | 35013 ft | 487 kts | 41° |
| 2026-05-06 07:15 | 27.96797 | 117.44226 | 35016 ft | 488 kts | 41° |
| 2026-05-06 07:16 | 28.01517 | 117.49743 | 35018 ft | 488 kts | 41° |
| 2026-05-06 07:16 | 28.06234 | 117.55274 | 35017 ft | 488 kts | 41° |
| 2026-05-06 07:17 | 28.10966 | 117.60795 | 35018 ft | 489 kts | 41° |
| 2026-05-06 07:17 | 28.15707 | 117.66311 | 35017 ft | 489 kts | 41° |
| 2026-05-06 07:18 | 28.20444 | 117.71845 | 35013 ft | 489 kts | 41° |
| 2026-05-06 07:18 | 28.25173 | 117.77387 | 35016 ft | 489 kts | 41° |
| 2026-05-06 07:19 | 28.29902 | 117.82934 | 35011 ft | 489 kts | 41° |
| 2026-05-06 07:19 | 28.34636 | 117.88481 | 35015 ft | 489 kts | 41° |
| 2026-05-06 07:20 | 28.39365 | 117.94036 | 35009 ft | 489 kts | 41° |
| 2026-05-06 07:20 | 28.44074 | 117.99622 | 35019 ft | 490 kts | 42° |
| 2026-05-06 07:21 | 28.48700 | 118.05318 | 35014 ft | 491 kts | 43° |
| 2026-05-06 07:21 | 28.53267 | 118.11023 | 35011 ft | 491 kts | 43° |
| 2026-05-06 07:22 | 28.57863 | 118.16739 | 34573 ft | 487 kts | 43° |
| 2026-05-06 07:22 | 28.60157 | 118.19573 | 34157 ft | 486 kts | 43° |
| 2026-05-06 07:22 | 28.62451 | 118.22404 | 33726 ft | 487 kts | 43° |
| 2026-05-06 07:22 | 28.64750 | 118.25238 | 33271 ft | 488 kts | 43° |
| 2026-05-06 07:23 | 28.67062 | 118.28090 | 32807 ft | 491 kts | 43° |
| 2026-05-06 07:23 | 28.69383 | 118.30959 | 32355 ft | 494 kts | 44° |
| 2026-05-06 07:23 | 28.71711 | 118.33844 | 31907 ft | 496 kts | 44° |
| 2026-05-06 07:23 | 28.74047 | 118.36745 | 31476 ft | 498 kts | 44° |
| 2026-05-06 07:24 | 28.76392 | 118.39660 | 31046 ft | 499 kts | 44° |
| 2026-05-06 07:24 | 28.78742 | 118.42583 | 30615 ft | 501 kts | 44° |
| 2026-05-06 07:24 | 28.81096 | 118.45512 | 30195 ft | 502 kts | 44° |
| 2026-05-06 07:24 | 28.83462 | 118.48458 | 29748 ft | 504 kts | 45° |
| 2026-05-06 07:25 | 28.85831 | 118.51415 | 29282 ft | 506 kts | 45° |
| 2026-05-06 07:25 | 28.88207 | 118.54382 | 28801 ft | 507 kts | 45° |
| 2026-05-06 07:25 | 28.90593 | 118.57357 | 28332 ft | 508 kts | 45° |
| 2026-05-06 07:25 | 28.92980 | 118.60332 | 27880 ft | 509 kts | 45° |
| 2026-05-06 07:26 | 28.95369 | 118.63313 | 27418 ft | 509 kts | 45° |
| 2026-05-06 07:26 | 28.97760 | 118.66299 | 26975 ft | 510 kts | 45° |
| 2026-05-06 07:26 | 29.00150 | 118.69291 | 26534 ft | 510 kts | 45° |
| 2026-05-06 07:26 | 29.02539 | 118.72282 | 26101 ft | 510 kts | 45° |
| 2026-05-06 07:27 | 29.04931 | 118.75282 | 25689 ft | 511 kts | 45° |
| 2026-05-06 07:27 | 29.07323 | 118.78285 | 25273 ft | 511 kts | 45° |
| 2026-05-06 07:27 | 29.09718 | 118.81294 | 24859 ft | 512 kts | 45° |
| 2026-05-06 07:27 | 29.12114 | 118.84307 | 24444 ft | 513 kts | 45° |
| 2026-05-06 07:28 | 29.14517 | 118.87325 | 24050 ft | 513 kts | 45° |
| 2026-05-06 07:28 | 29.16916 | 118.90344 | 23657 ft | 511 kts | 46° |
| 2026-05-06 07:28 | 29.21666 | 118.96340 | 22740 ft | 505 kts | 46° |
| 2026-05-06 07:29 | 29.24013 | 118.99307 | 22293 ft | 501 kts | 46° |
| 2026-05-06 07:29 | 29.26345 | 119.02252 | 21837 ft | 497 kts | 46° |
| 2026-05-06 07:29 | 29.28659 | 119.05171 | 21392 ft | 493 kts | 46° |
| 2026-05-06 07:29 | 29.30957 | 119.08066 | 20954 ft | 490 kts | 46° |
| 2026-05-06 07:30 | 29.33241 | 119.10948 | 20527 ft | 486 kts | 46° |
| 2026-05-06 07:30 | 29.34742 | 119.12846 | 20241 ft | 484 kts | 46° |
| 2026-05-06 07:30 | 29.37755 | 119.16660 | 19652 ft | 480 kts | 46° |
| 2026-05-06 07:30 | 29.39981 | 119.19486 | 19195 ft | 476 kts | 46° |
| 2026-05-06 07:31 | 29.42194 | 119.22295 | 18743 ft | 472 kts | 47° |
| 2026-05-06 07:31 | 29.44388 | 119.25083 | 18307 ft | 469 kts | 47° |
| 2026-05-06 07:31 | 29.46559 | 119.27846 | 17809 ft | 464 kts | 47° |
| 2026-05-06 07:31 | 29.48711 | 119.30582 | 17300 ft | 460 kts | 47° |
| 2026-05-06 07:32 | 29.50843 | 119.33294 | 16796 ft | 456 kts | 47° |
| 2026-05-06 07:32 | 29.52959 | 119.35989 | 16303 ft | 453 kts | 47° |
| 2026-05-06 07:32 | 29.55059 | 119.38664 | 15833 ft | 449 kts | 47° |
| 2026-05-06 07:32 | 29.57143 | 119.41319 | 15341 ft | 446 kts | 46° |
| 2026-05-06 07:33 | 29.59213 | 119.43954 | 14869 ft | 443 kts | 46° |
| 2026-05-06 07:33 | 29.61269 | 119.46570 | 14407 ft | 439 kts | 46° |
| 2026-05-06 07:33 | 29.63442 | 119.49012 | 13950 ft | 435 kts | 39° |
| 2026-05-06 07:33 | 29.65845 | 119.51091 | 13475 ft | 430 kts | 32° |
| 2026-05-06 07:34 | 29.68305 | 119.53002 | 12969 ft | 422 kts | 32° |
| 2026-05-06 07:34 | 29.70705 | 119.54870 | 12586 ft | 410 kts | 32° |
| 2026-05-06 07:34 | 29.73032 | 119.56684 | 12213 ft | 399 kts | 33° |
| 2026-05-06 07:34 | 29.75298 | 119.58453 | 11847 ft | 389 kts | 33° |
| 2026-05-06 07:35 | 29.77507 | 119.60179 | 11480 ft | 379 kts | 33° |
| 2026-05-06 07:35 | 29.79663 | 119.61866 | 11120 ft | 371 kts | 33° |
| 2026-05-06 07:35 | 29.81740 | 119.63498 | 10771 ft | 363 kts | 33° |
| 2026-05-06 07:35 | 29.83802 | 119.65119 | 10422 ft | 355 kts | 33° |
| 2026-05-06 07:36 | 29.85843 | 119.66651 | 10082 ft | 346 kts | 28° |
| 2026-05-06 07:36 | 29.87947 | 119.67938 | 9733 ft | 340 kts | 26° |
| 2026-05-06 07:36 | 29.90030 | 119.69195 | 9355 ft | 335 kts | 26° |
| 2026-05-06 07:36 | 29.92070 | 119.70426 | 9095 ft | 327 kts | 27° |
| 2026-05-06 07:37 | 29.94064 | 119.71628 | 8840 ft | 320 kts | 27° |
| 2026-05-06 07:37 | 29.96009 | 119.72803 | 8581 ft | 312 kts | 27° |
| 2026-05-06 07:37 | 29.97909 | 119.73952 | 8333 ft | 305 kts | 27° |
| 2026-05-06 07:37 | 29.99767 | 119.75077 | 8108 ft | 300 kts | 27° |
| 2026-05-06 07:38 | 30.01578 | 119.76245 | 7965 ft | 297 kts | 34° |
| 2026-05-06 07:38 | 30.03174 | 119.77751 | 7846 ft | 296 kts | 45° |
| 2026-05-06 07:38 | 30.04470 | 119.79578 | 7720 ft | 293 kts | 57° |
| 2026-05-06 07:38 | 30.05459 | 119.81630 | 7606 ft | 294 kts | 63° |
| 2026-05-06 07:39 | 30.06404 | 119.83736 | 7481 ft | 296 kts | 63° |
| 2026-05-06 07:39 | 30.07046 | 119.85161 | 7399 ft | 296 kts | 63° |
| 2026-05-06 07:39 | 30.08302 | 119.87946 | 7241 ft | 295 kts | 63° |
| 2026-05-06 07:39 | 30.09246 | 119.90041 | 7118 ft | 290 kts | 63° |
| 2026-05-06 07:40 | 30.09852 | 119.91391 | 7041 ft | 282 kts | 63° |
| 2026-05-06 07:40 | 30.10735 | 119.93364 | 6922 ft | 271 kts | 63° |
| 2026-05-06 07:40 | 30.11586 | 119.95256 | 6803 ft | 260 kts | 63° |
| 2026-05-06 07:40 | 30.12404 | 119.97068 | 6687 ft | 250 kts | 63° |
| 2026-05-06 07:41 | 30.13456 | 119.99411 | 6526 ft | 244 kts | 64° |
| 2026-05-06 07:41 | 30.13971 | 120.00564 | 6405 ft | 243 kts | 63° |
| 2026-05-06 07:41 | 30.14732 | 120.02287 | 6209 ft | 238 kts | 67° |
| 2026-05-06 07:41 | 30.15054 | 120.04117 | 6006 ft | 232 kts | 97° |
| 2026-05-06 07:42 | 30.14569 | 120.05830 | 5801 ft | 222 kts | 127° |
| 2026-05-06 07:42 | 30.13480 | 120.07021 | 5606 ft | 215 kts | 153° |
| 2026-05-06 07:42 | 30.12158 | 120.07811 | 5417 ft | 213 kts | 153° |
| 2026-05-06 07:42 | 30.11045 | 120.08923 | 5225 ft | 215 kts | 124° |
| 2026-05-06 07:43 | 30.10631 | 120.10571 | 5067 ft | 218 kts | 89° |
| 2026-05-06 07:43 | 30.11055 | 120.12236 | 4917 ft | 218 kts | 66° |
| 2026-05-06 07:43 | 30.11752 | 120.13772 | 4795 ft | 212 kts | 64° |
| 2026-05-06 07:43 | 30.12417 | 120.15231 | 4681 ft | 201 kts | 65° |
| 2026-05-06 07:44 | 30.13054 | 120.16650 | 4449 ft | 197 kts | 66° |
| 2026-05-06 07:44 | 30.13681 | 120.18056 | 4190 ft | 196 kts | 65° |
| 2026-05-06 07:44 | 30.14306 | 120.19455 | 3944 ft | 196 kts | 65° |
| 2026-05-06 07:44 | 30.14927 | 120.20847 | 3686 ft | 194 kts | 65° |
| 2026-05-06 07:45 | 30.15541 | 120.22224 | 3443 ft | 192 kts | 65° |
| 2026-05-06 07:45 | 30.16144 | 120.23576 | 3191 ft | 191 kts | 65° |
| 2026-05-06 07:45 | 30.16752 | 120.24941 | 2956 ft | 191 kts | 64° |
| 2026-05-06 07:45 | 30.17357 | 120.26298 | 2700 ft | 190 kts | 66° |
| 2026-05-06 07:46 | 30.17957 | 120.27643 | 2445 ft | 186 kts | 66° |
| 2026-05-06 07:46 | 30.18545 | 120.28965 | 2229 ft | 183 kts | 64° |
| 2026-05-06 07:46 | 30.19122 | 120.30259 | 1982 ft | 177 kts | 66° |
| 2026-05-06 07:46 | 30.19667 | 120.31485 | 1769 ft | 165 kts | 65° |
| 2026-05-06 07:47 | 30.20173 | 120.32619 | 1555 ft | 151 kts | 66° |
| 2026-05-06 07:47 | 30.20637 | 120.33663 | 1369 ft | 144 kts | 66° |
| 2026-05-06 07:47 | 30.21087 | 120.34676 | 1172 ft | 139 kts | 66° |
| 2026-05-06 07:47 | 30.21533 | 120.35681 | 1006 ft | 140 kts | 66° |
| 2026-05-06 07:48 | 30.21971 | 120.36668 | 825 ft | 136 kts | 65° |
| 2026-05-06 07:48 | 30.22400 | 120.37652 | 654 ft | 137 kts | 70° |
| 2026-05-06 07:48 | 30.22847 | 120.38618 | 473 ft | 137 kts | 66° |
| 2026-05-06 07:48 | 30.23272 | 120.39597 | 307 ft | 138 kts | 63° |
| 2026-05-06 07:49 | 30.23705 | 120.40557 | 157 ft | 134 kts | 65° |
| 2026-05-06 07:49 | 30.24123 | 120.41507 | 39 ft | 126 kts | 65° |
| 2026-05-06 07:49 | 30.24476 | 120.42315 | 31 ft | 93 kts | 60° |
| 2026-05-06 07:49 | 30.24676 | 120.42765 | 29 ft | 27 kts | 63° |
| 2026-05-06 07:50 | 30.24719 | 120.42955 | 31 ft | 23 kts | 85° |
| 2026-05-06 07:50 | 30.24722 | 120.43086 | 33 ft | 14 kts | 90° |
| 2026-05-06 07:50 | 30.24705 | 120.43161 | 32 ft | 8 kts | 134° |
| 2026-05-06 07:50 | 30.24664 | 120.43159 | 32 ft | 6 kts | 213° |
| 2026-05-06 07:51 | 30.24644 | 120.43125 | 31 ft | 5 kts | 245° |
| 2026-05-06 07:51 | 30.24627 | 120.43087 | 31 ft | 7 kts | 243° |
| 2026-05-06 07:51 | 30.24588 | 120.42998 | 32 ft | 19 kts | 243° |
| 2026-05-06 07:51 | 30.24522 | 120.42849 | 32 ft | 21 kts | 243° |
| 2026-05-06 07:52 | 30.24452 | 120.42750 | 32 ft | 13 kts | 183° |
| 2026-05-06 07:52 | 30.24368 | 120.42790 | 32 ft | 14 kts | 153° |
| 2026-05-06 07:52 | 30.24274 | 120.42796 | 32 ft | 13 kts | 166° |
| 2026-05-06 07:52 | 30.24188 | 120.42844 | 32 ft | 15 kts | 153° |
| 2026-05-06 07:53 | 30.24144 | 120.42839 | 32 ft | 6 kts | 220° |
| 2026-05-06 07:53 | 30.24130 | 120.42817 | 32 ft | 2 kts | 234° |
| 2026-05-06 07:53 | 30.24124 | 120.42808 | 32 ft | 1 kts | 234° |
| 2026-05-06 07:53 | 30.24121 | 120.42803 | 32 ft | 0 kts | 234° |